createdAt,value
2019-05-29T03:01:27.819Z,9.25
2019-05-29T03:04:02.076Z,8.95
2019-05-29T03:06:36.503Z,9.10
2019-05-29T03:09:10.870Z,16.62
2019-05-29T03:11:45.112Z,8.53
2019-05-29T03:14:19.588Z,10.15
2019-05-29T03:16:54.365Z,8.55
2019-05-29T03:19:30.123Z,11.43
2019-05-29T03:22:03.814Z,10.63
2019-05-29T03:24:38.679Z,10.53
2019-05-29T03:27:12.525Z,9.85
2019-05-29T03:29:46.617Z,9.30
2019-05-29T03:32:20.493Z,7.80
2019-05-29T03:34:55.505Z,11.55
2019-05-29T03:37:30.325Z,9.85
2019-05-29T03:40:04.185Z,8.65
2019-05-29T03:42:38.967Z,9.68
2019-05-29T03:45:13.121Z,7.83
2019-05-29T03:47:46.875Z,9.15
2019-05-29T03:50:20.672Z,8.23
2019-05-29T03:52:54.684Z,8.85
2019-05-29T03:55:29.562Z,9.30
2019-05-29T03:58:05.085Z,8.60
2019-05-29T04:00:45.907Z,9.20
2019-05-29T04:03:15.241Z,8.20
2019-05-29T04:05:49.327Z,7.95
2019-05-29T04:08:24.509Z,7.78
2019-05-29T04:10:58.546Z,7.40
2019-05-29T04:13:34.046Z,8.18
2019-05-29T04:16:10.596Z,9.50
2019-05-29T04:18:45.354Z,12.40
2019-05-29T04:21:20.793Z,9.93
2019-05-29T04:23:56.478Z,8.65
2019-05-29T04:26:33.951Z,9.18
2019-05-29T04:29:08.169Z,7.75
2019-05-29T04:31:42.898Z,7.87
2019-05-29T04:34:17.797Z,7.08
2019-05-29T04:36:51.680Z,7.42
2019-05-29T04:39:25.425Z,7.95
2019-05-29T04:41:59.360Z,7.12
2019-05-29T04:44:35.641Z,8.08
2019-05-29T04:47:11.478Z,8.85
2019-05-29T04:49:44.138Z,6.62
2019-05-29T04:52:18.013Z,7.03
2019-05-29T04:54:51.783Z,7.78
2019-05-29T04:57:25.653Z,7.08
2019-05-29T04:59:59.474Z,7.47
2019-05-29T05:02:33.409Z,7.25
2019-05-29T05:05:07.891Z,6.97
2019-05-29T05:07:41.896Z,6.60
2019-05-29T05:10:33.948Z,6.90
2019-05-29T05:13:08.239Z,7.83
2019-05-29T05:15:44.977Z,7.92
2019-05-29T05:18:19.164Z,7.75
2019-05-29T05:20:53.190Z,6.70
2019-05-29T05:23:27.032Z,7.78
2019-05-29T05:26:01.092Z,7.33
2019-05-29T05:28:36.454Z,6.42
2019-05-29T05:31:11.263Z,6.97
2019-05-29T05:33:45.144Z,7.22
2019-05-29T05:36:19.193Z,6.25
2019-05-29T05:38:53.166Z,5.87
2019-05-29T05:41:26.867Z,6.20
2019-05-29T05:44:00.457Z,6.20
2019-05-29T05:46:34.943Z,6.25
2019-05-29T05:49:09.129Z,5.95
2019-05-29T05:51:44.758Z,6.45
2019-05-29T05:54:18.566Z,6.35
2019-05-29T05:56:53.782Z,7.28
2019-05-29T05:59:28.891Z,6.58
2019-05-29T06:02:03.091Z,6.30
2019-05-29T06:04:38.053Z,5.30
2019-05-29T06:07:12.027Z,6.33
2019-05-29T06:09:46.274Z,6.15
2019-05-29T06:12:20.580Z,6.20
2019-05-29T06:14:54.383Z,6.75
2019-05-29T06:17:28.191Z,6.60
2019-05-29T06:20:02.213Z,6.67
2019-05-29T06:22:36.870Z,6.53
2019-05-29T06:25:11.300Z,6.70
2019-05-29T06:27:45.315Z,6.65
2019-05-29T06:30:20.579Z,6.25
2019-05-29T06:32:55.071Z,5.83
2019-05-29T06:35:28.953Z,6.28
2019-05-29T06:38:02.746Z,6.03
2019-05-29T06:40:40.213Z,5.33
2019-05-29T06:43:33.750Z,5.83
2019-05-29T06:46:07.709Z,5.58
2019-05-29T06:48:55.127Z,5.47
2019-05-29T06:51:17.783Z,5.30
2019-05-29T06:53:51.600Z,5.72
2019-05-29T06:56:25.365Z,5.10
2019-05-29T06:59:00.430Z,5.08
2019-05-29T07:01:35.207Z,5.42
2019-05-29T07:04:12.210Z,5.28
2019-05-29T07:06:44.863Z,4.62
2019-05-29T07:09:18.911Z,4.97
2019-05-29T07:11:52.856Z,4.72
2019-05-29T07:14:26.838Z,5.47
2019-05-29T07:17:00.897Z,5.47
2019-05-29T07:19:52.468Z,5.40
2019-05-29T07:22:11.321Z,5.90
2019-05-29T07:24:47.016Z,4.90
2019-05-29T07:27:21.103Z,5.70
2019-05-29T07:29:55.000Z,5.50
2019-05-29T07:32:28.942Z,4.92
2019-05-29T07:35:04.253Z,5.40
2019-05-29T07:37:39.685Z,4.80
2019-05-29T07:40:14.175Z,5.35
2019-05-29T07:42:55.175Z,6.90
2019-05-29T07:45:25.192Z,6.85
2019-05-29T07:47:59.430Z,5.55
2019-05-29T07:50:33.511Z,4.95
2019-05-29T07:53:07.610Z,4.75
2019-05-29T07:55:42.690Z,5.45
2019-05-29T07:58:16.490Z,6.45
2019-05-29T08:01:09.948Z,5.05
2019-05-29T08:03:26.277Z,6.17
2019-05-29T08:06:00.137Z,5.12
2019-05-29T08:08:33.951Z,4.60
2019-05-29T08:11:07.943Z,5.03
2019-05-29T08:13:42.081Z,4.65
2019-05-29T08:16:16.290Z,5.50
2019-05-29T08:18:53.041Z,4.70
2019-05-29T08:21:26.543Z,5.28
2019-05-29T08:24:00.469Z,5.03
2019-05-29T08:26:34.495Z,4.85
2019-05-29T08:29:08.314Z,4.95
2019-05-29T08:31:42.772Z,5.45
2019-05-29T08:34:16.733Z,4.53
2019-05-29T08:37:04.807Z,5.33
2019-05-29T08:39:36.238Z,5.05
2019-05-29T08:42:21.987Z,5.50
2019-05-29T08:44:38.417Z,4.80
2019-05-29T08:47:12.223Z,5.62
2019-05-29T08:49:50.597Z,5.65
2019-05-29T08:52:21.850Z,4.62
2019-05-29T08:54:55.778Z,5.40
2019-05-29T08:57:29.883Z,5.08
2019-05-29T09:00:06.094Z,5.60
2019-05-29T09:02:40.281Z,4.58
2019-05-29T09:05:14.900Z,5.10
2019-05-29T09:07:50.047Z,5.50
2019-05-29T09:10:25.170Z,4.78
2019-05-29T09:13:04.671Z,6.00
2019-05-29T09:15:34.538Z,5.92
2019-05-29T09:18:08.430Z,5.25
2019-05-29T09:21:00.976Z,5.35
2019-05-29T09:23:18.909Z,5.37
2019-05-29T09:25:53.890Z,4.50
2019-05-29T09:28:25.786Z,5.47
2019-05-29T09:30:59.652Z,5.17
2019-05-29T09:33:33.506Z,4.80
2019-05-29T09:36:07.459Z,4.92
2019-05-29T09:38:41.236Z,5.30
2019-05-29T09:41:16.292Z,5.00
2019-05-29T09:43:58.719Z,4.92
2019-05-29T09:46:26.867Z,5.12
2019-05-29T09:49:01.726Z,5.28
2019-05-29T09:51:36.649Z,5.62
2019-05-29T09:54:10.582Z,4.75
2019-05-29T09:56:44.680Z,6.40
2019-05-29T09:59:18.458Z,5.55
2019-05-29T10:01:54.165Z,5.67
2019-05-29T10:04:28.018Z,6.33
2019-05-29T10:07:02.917Z,6.58
2019-05-29T10:09:37.968Z,6.58
2019-05-29T10:12:11.875Z,5.50
2019-05-29T10:14:45.863Z,5.45
2019-05-29T10:17:19.585Z,5.65
2019-05-29T10:19:55.423Z,5.45
2019-05-29T10:22:29.066Z,5.40
2019-05-29T10:25:03.657Z,6.22
2019-05-29T10:27:37.907Z,6.10
2019-05-29T10:30:13.426Z,6.72
2019-05-29T10:32:48.160Z,6.37
2019-05-29T10:35:22.091Z,5.65
2019-05-29T10:37:55.786Z,5.50
2019-05-29T10:40:29.881Z,5.55
2019-05-29T10:43:03.699Z,5.15
2019-05-29T10:45:37.606Z,5.83
2019-05-29T10:48:11.518Z,6.00
2019-05-29T10:50:49.358Z,6.10
2019-05-29T10:53:21.596Z,5.65
2019-05-29T10:55:55.474Z,6.00
2019-05-29T10:58:30.619Z,6.33
2019-05-29T11:01:05.593Z,5.75
2019-05-29T11:03:40.325Z,5.67
2019-05-29T11:06:14.193Z,5.35
2019-05-29T11:08:48.144Z,5.22
2019-05-29T11:11:22.136Z,5.75
2019-05-29T11:13:57.132Z,5.53
2019-05-29T11:16:32.287Z,5.12
2019-05-29T11:19:06.105Z,5.40
2019-05-29T11:21:40.029Z,6.25
2019-05-29T11:24:14.963Z,6.53
2019-05-29T11:26:50.215Z,6.40
2019-05-29T11:29:24.248Z,6.62
2019-05-29T11:31:58.973Z,6.58
2019-05-29T11:34:32.926Z,5.42
2019-05-29T11:37:06.743Z,5.20
2019-05-29T11:39:40.660Z,6.00
2019-05-29T11:42:26.798Z,5.90
2019-05-29T11:44:50.855Z,6.85
2019-05-29T11:47:24.910Z,5.78
2019-05-29T11:50:16.559Z,5.83
2019-05-29T11:52:43.022Z,5.83
2019-05-29T11:55:13.344Z,6.20
2019-05-29T11:57:47.626Z,6.37
2019-05-29T12:00:22.031Z,6.30
2019-05-29T12:02:57.762Z,6.55
2019-05-29T12:05:32.717Z,6.15
2019-05-29T12:08:06.799Z,6.97
2019-05-29T12:10:40.477Z,6.85
2019-05-29T12:13:14.686Z,6.58
2019-05-29T12:15:48.483Z,6.17
2019-05-29T12:18:24.207Z,6.22
2019-05-29T12:20:58.696Z,5.90
2019-05-29T12:23:32.846Z,5.90
2019-05-29T12:26:21.756Z,6.25
2019-05-29T12:28:42.578Z,7.08
2019-05-29T12:31:16.662Z,6.37
2019-05-29T12:33:52.825Z,7.03
2019-05-29T12:36:26.804Z,6.00
2019-05-29T12:39:02.210Z,5.95
2019-05-29T12:41:36.396Z,6.58
2019-05-29T12:44:10.262Z,7.28
2019-05-29T12:46:44.283Z,7.80
2019-05-29T12:49:18.202Z,6.78
2019-05-29T12:51:53.475Z,8.95
2019-05-29T12:54:27.930Z,7.30
2019-05-29T12:57:02.492Z,6.92
2019-05-29T12:59:38.561Z,5.47
2019-05-29T13:02:12.885Z,5.95
2019-05-29T13:05:07.095Z,6.30
2019-05-29T13:07:23.926Z,7.10
2019-05-29T13:09:58.896Z,6.55
2019-05-29T13:12:34.024Z,5.65
2019-05-29T13:15:08.866Z,5.97
2019-05-29T13:17:42.989Z,5.78
2019-05-29T13:20:21.778Z,5.75
2019-05-29T13:22:53.325Z,6.65
2019-05-29T13:25:27.235Z,6.60
2019-05-29T13:28:02.690Z,6.33
2019-05-29T13:30:38.908Z,6.10
2019-05-29T13:33:12.995Z,6.05
2019-05-29T13:35:47.793Z,6.12
2019-05-29T13:38:21.964Z,6.60
2019-05-29T13:40:56.310Z,5.25
2019-05-29T13:43:31.167Z,5.97
2019-05-29T13:46:05.048Z,5.30
2019-05-29T13:48:38.905Z,5.30
2019-05-29T13:51:12.677Z,5.15
2019-05-29T13:54:01.958Z,5.47
2019-05-29T13:56:24.352Z,6.42
2019-05-29T13:58:58.119Z,5.12
2019-05-29T14:01:31.934Z,5.28
2019-05-29T14:04:06.822Z,5.55
2019-05-29T14:06:40.868Z,6.70
2019-05-29T14:09:14.914Z,5.90
2019-05-29T14:11:48.746Z,5.42
2019-05-29T14:14:23.410Z,6.03
2019-05-29T14:16:57.612Z,5.28
2019-05-29T14:19:31.875Z,5.28
2019-05-29T14:22:07.092Z,4.92
2019-05-29T14:24:41.210Z,4.80
2019-05-29T14:27:14.982Z,4.40
2019-05-29T14:29:48.789Z,4.60
2019-05-29T14:32:22.798Z,4.50
2019-05-29T14:34:56.529Z,5.78
2019-05-29T14:37:30.295Z,5.33
2019-05-29T14:40:05.650Z,4.33
2019-05-29T14:42:39.762Z,5.05
2019-05-29T14:45:13.742Z,4.87
2019-05-29T14:47:47.612Z,4.47
2019-05-29T14:50:21.637Z,4.72
2019-05-29T14:52:55.718Z,4.40
2019-05-29T14:55:29.509Z,4.95
2019-05-29T14:58:03.651Z,4.08
2019-05-29T15:00:37.763Z,5.20
2019-05-29T15:03:11.678Z,5.40
2019-05-29T15:05:47.959Z,4.03
2019-05-29T15:08:22.247Z,4.72
2019-05-29T15:10:56.296Z,4.40
2019-05-29T15:13:30.073Z,4.50
2019-05-29T15:16:04.607Z,4.78
2019-05-29T15:18:39.813Z,4.25
2019-05-29T15:21:13.655Z,4.80
2019-05-29T15:23:47.423Z,4.35
2019-05-29T15:26:21.792Z,3.90
2019-05-29T15:28:56.668Z,4.47
2019-05-29T15:31:30.574Z,4.28
2019-05-29T15:34:06.082Z,5.35
2019-05-29T15:36:40.397Z,4.20
2019-05-29T15:39:14.697Z,4.97
2019-05-29T15:41:48.477Z,5.17
2019-05-29T15:44:22.381Z,4.85
2019-05-29T15:46:56.409Z,4.22
2019-05-29T15:49:31.223Z,4.22
2019-05-29T15:52:06.868Z,4.85
2019-05-29T15:54:40.981Z,4.53
2019-05-29T15:57:15.246Z,4.12
2019-05-29T15:59:49.229Z,4.47
2019-05-29T16:02:22.867Z,4.60
2019-05-29T16:04:57.039Z,4.20
2019-05-29T16:07:30.895Z,4.53
2019-05-29T16:10:06.147Z,15.63
2019-05-29T16:12:40.374Z,7.58
2019-05-29T16:15:15.317Z,5.08
2019-05-29T16:17:49.268Z,4.47
2019-05-29T16:20:23.591Z,5.00
2019-05-29T16:22:57.673Z,4.42
2019-05-29T16:25:40.032Z,5.58
2019-05-29T16:28:06.965Z,4.78
2019-05-29T16:30:40.851Z,4.50
2019-05-29T16:33:15.164Z,5.42
2019-05-29T16:35:49.670Z,4.37
2019-05-29T16:38:23.630Z,5.55
2019-05-29T16:40:57.282Z,5.03
2019-05-29T16:43:31.123Z,4.37
2019-05-29T16:46:05.188Z,5.28
2019-05-29T16:48:39.125Z,5.10
2019-05-29T16:51:14.588Z,4.90
2019-05-29T16:53:48.483Z,5.22
2019-05-29T16:56:23.336Z,5.30
2019-05-29T16:58:57.412Z,5.55
2019-05-29T17:01:31.301Z,5.00
2019-05-29T17:04:05.015Z,7.25
2019-05-29T17:06:38.657Z,20.90
2019-05-29T17:09:12.515Z,5.58
2019-05-29T17:11:46.444Z,5.08
2019-05-29T17:14:20.878Z,4.78
2019-05-29T17:16:55.014Z,5.25
2019-05-29T17:19:29.026Z,5.00
2019-05-29T17:22:03.833Z,5.58
2019-05-29T17:24:38.424Z,4.85
2019-05-29T17:27:12.242Z,4.70
2019-05-29T17:29:46.261Z,5.03
2019-05-29T17:32:21.227Z,4.72
2019-05-29T17:34:54.924Z,5.70
2019-05-29T17:37:28.991Z,5.75
2019-05-29T17:40:02.704Z,5.72
2019-05-29T17:42:36.515Z,5.65
2019-05-29T17:45:11.719Z,6.83
2019-05-29T17:47:45.927Z,7.05
2019-05-29T17:50:22.898Z,7.20
2019-05-29T17:52:55.645Z,7.00
2019-05-29T17:55:30.368Z,7.40
2019-05-29T17:58:04.530Z,7.72
2019-05-29T18:00:38.190Z,6.95
2019-05-29T18:03:12.028Z,9.18
2019-05-29T18:05:46.208Z,6.75
2019-05-29T18:08:20.713Z,8.18
2019-05-29T18:10:54.619Z,6.83
2019-05-29T18:13:28.643Z,7.05
2019-05-29T18:16:04.061Z,7.33
2019-05-29T18:18:37.822Z,6.60
2019-05-29T18:21:13.174Z,7.58
2019-05-29T18:23:46.857Z,7.72
2019-05-29T18:26:21.899Z,7.03
2019-05-29T18:28:55.699Z,8.53
2019-05-29T18:31:29.575Z,16.15
2019-05-29T18:34:04.528Z,22.27
2019-05-29T18:36:38.210Z,9.55
2019-05-29T18:39:13.079Z,9.93
2019-05-29T18:41:47.686Z,9.03
2019-05-29T18:44:22.712Z,8.55
2019-05-29T18:46:56.301Z,8.70
2019-05-29T18:49:30.049Z,8.60
2019-05-29T18:52:06.047Z,9.03
2019-05-29T18:54:39.926Z,8.80
2019-05-29T18:57:15.987Z,8.78
2019-05-29T18:59:51.439Z,8.38
2019-05-29T19:02:25.369Z,8.30
2019-05-29T19:04:59.122Z,9.28
2019-05-29T19:07:33.064Z,13.03
2019-05-29T19:10:07.747Z,9.80
2019-05-29T19:12:41.807Z,9.98
2019-05-29T19:15:15.781Z,8.35
2019-05-29T19:17:49.570Z,8.20
2019-05-29T19:20:24.209Z,9.58
2019-05-29T19:22:58.396Z,9.05
2019-05-29T19:25:33.001Z,9.23
2019-05-29T19:28:07.323Z,8.88
2019-05-29T19:30:42.488Z,9.10
2019-05-29T19:33:16.387Z,9.30
2019-05-29T19:35:50.435Z,8.65
2019-05-29T19:38:25.624Z,9.03
2019-05-29T19:41:01.039Z,8.38
2019-05-29T19:43:34.782Z,8.95
2019-05-29T19:46:08.752Z,8.83
2019-05-29T19:48:42.930Z,8.90
2019-05-29T19:51:17.067Z,11.45
2019-05-29T19:53:51.466Z,9.13
2019-05-29T19:56:25.604Z,9.80
2019-05-29T19:58:59.285Z,10.50
2019-05-29T20:01:38.541Z,10.03
2019-05-29T20:04:08.919Z,9.88
2019-05-29T20:06:43.062Z,9.30
2019-05-29T20:09:16.746Z,10.15
2019-05-29T20:11:50.772Z,9.38
2019-05-29T20:14:24.624Z,8.93
2019-05-29T20:16:59.508Z,9.73
2019-05-29T20:19:37.171Z,9.40
2019-05-29T20:22:09.113Z,9.63
2019-05-29T20:24:43.279Z,9.65
2019-05-29T20:27:17.932Z,9.98
2019-05-29T20:29:51.917Z,10.13
2019-05-29T20:32:25.970Z,10.63
2019-05-29T20:35:00.184Z,10.32
2019-05-29T20:37:34.227Z,10.98
2019-05-29T20:40:08.693Z,10.60
2019-05-29T20:42:43.024Z,10.85
2019-05-29T20:45:17.280Z,10.63
2019-05-29T20:47:52.951Z,9.85
2019-05-29T20:50:27.171Z,10.13
2019-05-29T20:53:02.247Z,10.30
2019-05-29T20:55:36.141Z,10.38
2019-05-29T20:58:24.251Z,10.68
2019-05-29T21:00:45.804Z,10.65
2019-05-29T21:03:19.694Z,10.38
2019-05-29T21:05:53.501Z,10.90
2019-05-29T21:08:27.215Z,10.72
2019-05-29T21:11:01.220Z,12.73
2019-05-29T21:13:35.348Z,11.55
2019-05-29T21:16:09.159Z,11.93
2019-05-29T21:18:44.159Z,10.70
2019-05-29T21:21:18.231Z,10.32
2019-05-29T21:23:52.199Z,10.30
2019-05-29T21:26:26.057Z,10.68
2019-05-29T21:29:01.855Z,10.82
2019-05-29T21:31:37.498Z,10.55
2019-05-29T21:34:11.746Z,10.72
2019-05-29T21:36:46.408Z,11.95
2019-05-29T21:39:20.537Z,11.48
2019-05-29T21:41:54.329Z,11.68
2019-05-29T21:44:28.354Z,12.05
2019-05-29T21:47:02.204Z,11.33
2019-05-29T21:49:37.242Z,12.50
2019-05-29T21:52:11.297Z,12.73
2019-05-29T21:54:45.686Z,13.78
2019-05-29T21:57:20.087Z,12.65
2019-05-29T21:59:53.960Z,13.30
2019-05-29T22:02:27.797Z,13.35
2019-05-29T22:05:02.153Z,12.78
2019-05-29T22:07:36.046Z,13.15
2019-05-29T22:10:11.937Z,13.50
2019-05-29T22:12:46.099Z,13.22
2019-05-29T22:15:20.730Z,14.58
2019-05-29T22:17:54.991Z,14.70
2019-05-29T22:20:30.012Z,15.50
2019-05-29T22:23:04.141Z,14.33
2019-05-29T22:25:38.397Z,14.93
2019-05-29T22:28:12.326Z,14.40
